sensor_id;sensor_type;location;lat;lon;timestamp;pressure;altitude;pressure_sealevel;temperature;humidity
76052;BME280;64751;48.708;9.710;2023-02-28T00:01:08;98225.81;;;-1.25;62.93
76052;BME280;64751;48.708;9.710;2023-02-28T00:03:36;98222.41;;;-1.25;62.59
76052;BME280;64751;48.708;9.710;2023-02-28T00:06:04;98223.66;;;-1.21;63.15
76052;BME280;64751;48.708;9.710;2023-02-28T00:08:33;98219.09;;;-1.19;62.70
76052;BME280;64751;48.708;9.710;2023-02-28T00:11:02;98216.13;;;-1.16;63.61
76052;BME280;64751;48.708;9.710;2023-02-28T00:13:30;98191.50;;;-1.27;63.69
76052;BME280;64751;48.708;9.710;2023-02-28T00:16:01;98216.50;;;-1.19;62.96
76052;BME280;64751;48.708;9.710;2023-02-28T00:18:30;98209.91;;;-1.22;63.50
76052;BME280;64751;48.708;9.710;2023-02-28T00:20:57;98209.91;;;-1.22;63.39
76052;BME280;64751;48.708;9.710;2023-02-28T00:23:25;98204.91;;;-1.23;62.87
76052;BME280;64751;48.708;9.710;2023-02-28T00:25:55;98200.50;;;-1.23;63.60
76052;BME280;64751;48.708;9.710;2023-02-28T00:28:22;98202.53;;;-1.18;63.23
76052;BME280;64751;48.708;9.710;2023-02-28T00:30:51;98202.19;;;-1.15;63.30
76052;BME280;64751;48.708;9.710;2023-02-28T00:33:18;98210.56;;;-1.13;63.42
76052;BME280;64751;48.708;9.710;2023-02-28T00:35:47;98200.56;;;-1.16;63.52
76052;BME280;64751;48.708;9.710;2023-02-28T00:38:15;98204.34;;;-1.19;63.38
76052;BME280;64751;48.708;9.710;2023-02-28T00:40:43;98210.44;;;-1.26;63.70
76052;BME280;64751;48.708;9.710;2023-02-28T00:43:12;98201.63;;;-1.32;62.92
76052;BME280;64751;48.708;9.710;2023-02-28T00:45:39;98207.59;;;-1.31;63.67
76052;BME280;64751;48.708;9.710;2023-02-28T00:48:07;98206.44;;;-1.29;64.33
76052;BME280;64751;48.708;9.710;2023-02-28T00:50:34;98208.22;;;-1.29;63.77
76052;BME280;64751;48.708;9.710;2023-02-28T00:53:02;98207.25;;;-1.28;64.32
76052;BME280;64751;48.708;9.710;2023-02-28T00:55:29;98206.84;;;-1.25;64.57
76052;BME280;64751;48.708;9.710;2023-02-28T00:57:57;98205.69;;;-1.23;64.31
76052;BME280;64751;48.708;9.710;2023-02-28T01:00:26;98208.84;;;-1.27;63.78
76052;BME280;64751;48.708;9.710;2023-02-28T01:02:54;98204.47;;;-1.27;64.72
76052;BME280;64751;48.708;9.710;2023-02-28T01:05:22;98204.81;;;-1.30;64.16
76052;BME280;64751;48.708;9.710;2023-02-28T01:07:50;98206.63;;;-1.30;64.59
76052;BME280;64751;48.708;9.710;2023-02-28T01:10:17;98204.66;;;-1.28;64.45
76052;BME280;64751;48.708;9.710;2023-02-28T01:12:47;98201.06;;;-1.27;64.81
76052;BME280;64751;48.708;9.710;2023-02-28T01:15:15;98209.22;;;-1.30;64.39
76052;BME280;64751;48.708;9.710;2023-02-28T01:17:46;98207.97;;;-1.34;64.55
76052;BME280;64751;48.708;9.710;2023-02-28T01:20:14;98197.59;;;-1.34;65.04
76052;BME280;64751;48.708;9.710;2023-02-28T01:22:41;98204.75;;;-1.36;64.96
76052;BME280;64751;48.708;9.710;2023-02-28T01:25:09;98201.56;;;-1.38;65.60
76052;BME280;64751;48.708;9.710;2023-02-28T01:27:37;98196.75;;;-1.41;65.22
76052;BME280;64751;48.708;9.710;2023-02-28T01:30:06;98192.38;;;-1.41;65.93
76052;BME280;64751;48.708;9.710;2023-02-28T01:32:35;98204.59;;;-1.35;65.17
76052;BME280;64751;48.708;9.710;2023-02-28T01:35:05;98197.59;;;-1.34;65.32
76052;BME280;64751;48.708;9.710;2023-02-28T01:37:32;98191.81;;;-1.36;66.03
76052;BME280;64751;48.708;9.710;2023-02-28T01:40:00;98199.16;;;-1.40;65.24
76052;BME280;64751;48.708;9.710;2023-02-28T01:42:27;98200.59;;;-1.37;65.99
76052;BME280;64751;48.708;9.710;2023-02-28T01:45:04;98196.50;;;-1.47;65.57
76052;BME280;64751;48.708;9.710;2023-02-28T01:47:37;98201.88;;;-1.48;66.30
76052;BME280;64751;48.708;9.710;2023-02-28T01:50:09;98195.50;;;-1.46;66.05
76052;BME280;64751;48.708;9.710;2023-02-28T01:52:40;98203.72;;;-1.42;67.02
76052;BME280;64751;48.708;9.710;2023-02-28T01:55:10;98193.91;;;-1.47;66.10
76052;BME280;64751;48.708;9.710;2023-02-28T01:57:40;98192.13;;;-1.46;66.21
76052;BME280;64751;48.708;9.710;2023-02-28T02:00:13;98196.16;;;-1.43;66.13
76052;BME280;64751;48.708;9.710;2023-02-28T02:02:50;98190.72;;;-1.49;66.84
76052;BME280;64751;48.708;9.710;2023-02-28T02:05:22;98183.91;;;-1.50;66.67
76052;BME280;64751;48.708;9.710;2023-02-28T02:07:52;98181.78;;;-1.46;66.82
76052;BME280;64751;48.708;9.710;2023-02-28T02:10:25;98185.16;;;-1.46;67.04
76052;BME280;64751;48.708;9.710;2023-02-28T02:13:09;98181.06;;;-1.55;66.85
76052;BME280;64751;48.708;9.710;2023-02-28T02:15:43;98180.72;;;-1.52;67.46
76052;BME280;64751;48.708;9.710;2023-02-28T02:18:19;98170.16;;;-1.50;67.95
76052;BME280;64751;48.708;9.710;2023-02-28T02:21:18;98174.38;;;-1.49;66.97
76052;BME280;64751;48.708;9.710;2023-02-28T02:27:22;98168.88;;;-1.61;67.98
76052;BME280;64751;48.708;9.710;2023-02-28T02:33:32;98151.91;;;-1.63;68.08
76052;BME280;64751;48.708;9.710;2023-02-28T02:36:13;98160.84;;;-1.66;68.25
76052;BME280;64751;48.708;9.710;2023-02-28T02:38:49;98160.84;;;-1.66;68.00
76052;BME280;64751;48.708;9.710;2023-02-28T02:41:23;98152.91;;;-1.64;68.62
76052;BME280;64751;48.708;9.710;2023-02-28T02:43:55;98156.06;;;-1.69;68.45
76052;BME280;64751;48.708;9.710;2023-02-28T02:46:29;98164.44;;;-1.67;67.96
76052;BME280;64751;48.708;9.710;2023-02-28T02:49:00;98121.75;;;-1.92;68.08
76052;BME280;64751;48.708;9.710;2023-02-28T02:51:32;98166.22;;;-1.67;69.24
76052;BME280;64751;48.708;9.710;2023-02-28T02:54:03;98170.72;;;-1.76;68.85
76052;BME280;64751;48.708;9.710;2023-02-28T02:56:35;98170.34;;;-1.73;69.22
76052;BME280;64751;48.708;9.710;2023-02-28T02:59:06;98167.56;;;-1.71;68.82
76052;BME280;64751;48.708;9.710;2023-02-28T03:01:35;98162.38;;;-1.71;69.44
76052;BME280;64751;48.708;9.710;2023-02-28T03:04:07;98159.19;;;-1.73;69.80
76052;BME280;64751;48.708;9.710;2023-02-28T03:06:37;98161.84;;;-1.67;70.00
76052;BME280;64751;48.708;9.710;2023-02-28T03:09:04;98154.06;;;-1.67;69.37
76052;BME280;64751;48.708;9.710;2023-02-28T03:11:32;98164.50;;;-1.60;69.18
76052;BME280;64751;48.708;9.710;2023-02-28T03:14:30;98159.50;;;-1.62;68.95
76052;BME280;64751;48.708;9.710;2023-02-28T03:17:15;98170.72;;;-1.55;69.54
76052;BME280;64751;48.708;9.710;2023-02-28T03:19:56;98159.81;;;-1.50;68.99
76052;BME280;64751;48.708;9.710;2023-02-28T03:22:45;98164.19;;;-1.51;69.31
76052;BME280;64751;48.708;9.710;2023-02-28T03:25:20;98165.72;;;-1.56;69.09
76052;BME280;64751;48.708;9.710;2023-02-28T03:28:00;98175.72;;;-1.53;68.99
76052;BME280;64751;48.708;9.710;2023-02-28T03:30:36;98173.31;;;-1.55;69.27
76052;BME280;64751;48.708;9.710;2023-02-28T03:33:09;98173.69;;;-1.58;68.91
76052;BME280;64751;48.708;9.710;2023-02-28T03:35:42;98171.09;;;-1.58;69.73
76052;BME280;64751;48.708;9.710;2023-02-28T03:38:17;98173.13;;;-1.53;69.97
76052;BME280;64751;48.708;9.710;2023-02-28T03:40:49;98170.28;;;-1.58;69.14
76052;BME280;64751;48.708;9.710;2023-02-28T03:43:22;98161.56;;;-1.57;69.53
76052;BME280;64751;48.708;9.710;2023-02-28T03:45:53;98167.63;;;-1.65;69.54
76052;BME280;64751;48.708;9.710;2023-02-28T03:48:24;98170.03;;;-1.63;70.05
76052;BME280;64751;48.708;9.710;2023-02-28T03:50:55;98182.09;;;-1.70;70.21
76052;BME280;64751;48.708;9.710;2023-02-28T03:53:29;98178.13;;;-1.73;70.16
76052;BME280;64751;48.708;9.710;2023-02-28T03:56:02;98171.59;;;-1.69;69.87
76052;BME280;64751;48.708;9.710;2023-02-28T03:58:37;98169.59;;;-1.67;70.22
76052;BME280;64751;48.708;9.710;2023-02-28T04:01:09;98169.59;;;-1.67;69.63
76052;BME280;64751;48.708;9.710;2023-02-28T04:03:39;98160.28;;;-1.61;70.21
76052;BME280;64751;48.708;9.710;2023-02-28T04:06:08;98167.84;;;-1.66;69.39
76052;BME280;64751;48.708;9.710;2023-02-28T04:08:41;98162.25;;;-1.63;69.49
76052;BME280;64751;48.708;9.710;2023-02-28T04:11:16;98167.09;;;-1.60;70.19
76052;BME280;64751;48.708;9.710;2023-02-28T04:13:45;98164.03;;;-1.64;69.93
76052;BME280;64751;48.708;9.710;2023-02-28T04:16:13;98172.28;;;-1.75;70.83
76052;BME280;64751;48.708;9.710;2023-02-28T04:18:41;98171.19;;;-1.66;70.35
76052;BME280;64751;48.708;9.710;2023-02-28T04:21:09;98178.06;;;-1.58;70.35
76052;BME280;64751;48.708;9.710;2023-02-28T04:23:37;98178.19;;;-1.66;69.94
76052;BME280;64751;48.708;9.710;2023-02-28T04:26:06;98173.97;;;-1.67;70.29
76052;BME280;64751;48.708;9.710;2023-02-28T04:28:34;98174.16;;;-1.69;70.17
76052;BME280;64751;48.708;9.710;2023-02-28T04:31:03;98174.53;;;-1.72;69.98
76052;BME280;64751;48.708;9.710;2023-02-28T04:33:32;98173.97;;;-1.67;69.66
76052;BME280;64751;48.708;9.710;2023-02-28T04:36:00;98170.22;;;-1.65;70.16
76052;BME280;64751;48.708;9.710;2023-02-28T04:38:29;98168.66;;;-1.59;70.33
76052;BME280;64751;48.708;9.710;2023-02-28T04:40:57;98172.13;;;-1.52;69.73
76052;BME280;64751;48.708;9.710;2023-02-28T04:43:27;98181.63;;;-1.59;69.70
76052;BME280;64751;48.708;9.710;2023-02-28T04:45:55;98176.81;;;-1.62;70.12
76052;BME280;64751;48.708;9.710;2023-02-28T04:48:24;98171.03;;;-1.64;70.12
76052;BME280;64751;48.708;9.710;2023-02-28T04:50:51;98170.59;;;-1.68;70.28
76052;BME280;64751;48.708;9.710;2023-02-28T04:53:19;98172.06;;;-1.59;70.22
76052;BME280;64751;48.708;9.710;2023-02-28T04:55:47;98169.13;;;-1.56;69.56
76052;BME280;64751;48.708;9.710;2023-02-28T04:58:14;98174.31;;;-1.56;69.52
76052;BME280;64751;48.708;9.710;2023-02-28T05:00:43;98172.94;;;-1.52;70.05
76052;BME280;64751;48.708;9.710;2023-02-28T05:03:11;98166.78;;;-1.51;69.25
76052;BME280;64751;48.708;9.710;2023-02-28T05:05:38;98178.38;;;-1.47;69.20
76052;BME280;64751;48.708;9.710;2023-02-28T05:08:06;98177.38;;;-1.46;69.54
76052;BME280;64751;48.708;9.710;2023-02-28T05:10:33;98181.22;;;-1.41;69.12
76052;BME280;64751;48.708;9.710;2023-02-28T05:13:01;98162.66;;;-1.45;69.18
76052;BME280;64751;48.708;9.710;2023-02-28T05:15:28;98174.13;;;-1.33;68.90
76052;BME280;64751;48.708;9.710;2023-02-28T05:17:57;98168.56;;;-1.30;69.00
76052;BME280;64751;48.708;9.710;2023-02-28T05:20:25;98173.31;;;-1.33;68.72
76052;BME280;64751;48.708;9.710;2023-02-28T05:22:52;98173.13;;;-1.32;68.24
76052;BME280;64751;48.708;9.710;2023-02-28T05:25:21;98181.66;;;-1.38;68.47
76052;BME280;64751;48.708;9.710;2023-02-28T05:27:49;98187.88;;;-1.32;69.05
76052;BME280;64751;48.708;9.710;2023-02-28T05:30:17;98187.34;;;-1.28;68.53
76052;BME280;64751;48.708;9.710;2023-02-28T05:32:50;98184.50;;;-1.33;68.10
76052;BME280;64751;48.708;9.710;2023-02-28T05:35:19;98185.41;;;-1.40;68.16
76052;BME280;64751;48.708;9.710;2023-02-28T05:37:47;98182.06;;;-1.34;67.95
76052;BME280;64751;48.708;9.710;2023-02-28T05:40:14;98163.81;;;-1.48;68.55
76052;BME280;64751;48.708;9.710;2023-02-28T05:42:42;98193.16;;;-1.40;68.40
76052;BME280;64751;48.708;9.710;2023-02-28T05:45:10;98186.81;;;-1.38;68.07
76052;BME280;64751;48.708;9.710;2023-02-28T05:47:38;98189.84;;;-1.34;67.97
76052;BME280;64751;48.708;9.710;2023-02-28T05:50:07;98188.81;;;-1.40;67.78
76052;BME280;64751;48.708;9.710;2023-02-28T05:52:37;98186.41;;;-1.41;67.46
76052;BME280;64751;48.708;9.710;2023-02-28T05:55:05;98193.22;;;-1.34;67.49
76052;BME280;64751;48.708;9.710;2023-02-28T05:57:33;98167.66;;;-1.43;67.62
76052;BME280;64751;48.708;9.710;2023-02-28T06:00:01;98192.06;;;-1.31;67.97
76052;BME280;64751;48.708;9.710;2023-02-28T06:02:38;98201.00;;;-1.34;67.55
76052;BME280;64751;48.708;9.710;2023-02-28T06:05:08;98207.97;;;-1.34;67.96
76052;BME280;64751;48.708;9.710;2023-02-28T06:07:41;98200.19;;;-1.34;67.99
76052;BME280;64751;48.708;9.710;2023-02-28T06:10:10;98204.81;;;-1.30;68.12
76052;BME280;64751;48.708;9.710;2023-02-28T06:12:38;98194.91;;;-1.26;67.72
76052;BME280;64751;48.708;9.710;2023-02-28T06:15:11;98200.97;;;-1.19;67.70
76052;BME280;64751;48.708;9.710;2023-02-28T06:17:39;98204.16;;;-1.17;66.56
76052;BME280;64751;48.708;9.710;2023-02-28T06:20:08;98186.94;;;-1.25;67.36
76052;BME280;64751;48.708;9.710;2023-02-28T06:22:36;98210.88;;;-1.23;66.91
76052;BME280;64751;48.708;9.710;2023-02-28T06:25:06;98204.53;;;-1.20;66.68
76052;BME280;64751;48.708;9.710;2023-02-28T06:27:34;98211.31;;;-1.19;66.77
76052;BME280;64751;48.708;9.710;2023-02-28T06:30:02;98216.88;;;-1.22;67.29
76052;BME280;64751;48.708;9.710;2023-02-28T06:32:30;98222.91;;;-1.15;67.21
76052;BME280;64751;48.708;9.710;2023-02-28T06:34:57;98219.09;;;-1.19;66.84
76052;BME280;64751;48.708;9.710;2023-02-28T06:37:25;98211.31;;;-1.19;65.88
76052;BME280;64751;48.708;9.710;2023-02-28T06:39:54;98217.47;;;-1.20;66.27
76052;BME280;64751;48.708;9.710;2023-02-28T06:42:24;98232.91;;;-1.12;65.68
76052;BME280;64751;48.708;9.710;2023-02-28T06:44:55;98229.06;;;-1.16;65.25
76052;BME280;64751;48.708;9.710;2023-02-28T06:47:23;98226.13;;;-1.13;65.54
76052;BME280;64751;48.708;9.710;2023-02-28T06:49:51;98227.97;;;-1.07;66.39
76052;BME280;64751;48.708;9.710;2023-02-28T06:52:19;98237.34;;;-1.06;66.13
76052;BME280;64751;48.708;9.710;2023-02-28T06:54:48;98236.59;;;-1.00;65.60
76052;BME280;64751;48.708;9.710;2023-02-28T06:57:27;98245.78;;;-0.98;65.03
76052;BME280;64751;48.708;9.710;2023-02-28T06:59:57;98247.78;;;-1.00;65.72
76052;BME280;64751;48.708;9.710;2023-02-28T07:02:25;98255.75;;;-1.01;64.96
76052;BME280;64751;48.708;9.710;2023-02-28T07:04:52;98247.09;;;-1.08;64.28
76052;BME280;64751;48.708;9.710;2023-02-28T07:07:20;98244.94;;;-1.05;65.00
76052;BME280;64751;48.708;9.710;2023-02-28T07:09:48;98246.97;;;-1.00;65.08
76052;BME280;64751;48.708;9.710;2023-02-28T07:12:15;98251.78;;;-0.97;65.16
76052;BME280;64751;48.708;9.710;2023-02-28T07:14:44;98254.03;;;-0.94;64.29
76052;BME280;64751;48.708;9.710;2023-02-28T07:17:12;98265.16;;;-0.94;64.04
76052;BME280;64751;48.708;9.710;2023-02-28T07:19:39;98259.38;;;-0.96;64.31
76052;BME280;64751;48.708;9.710;2023-02-28T07:22:07;98253.78;;;-0.99;64.74
76052;BME280;64751;48.708;9.710;2023-02-28T07:24:34;98249.31;;;-1.05;63.79
76052;BME280;64751;48.708;9.710;2023-02-28T07:27:02;98259.56;;;-0.97;64.59
76052;BME280;64751;48.708;9.710;2023-02-28T07:29:30;98256.41;;;-0.93;64.51
76052;BME280;64751;48.708;9.710;2023-02-28T07:31:59;98260.78;;;-0.93;64.22
76052;BME280;64751;48.708;9.710;2023-02-28T07:34:26;98265.38;;;-0.95;63.57
76052;BME280;64751;48.708;9.710;2023-02-28T07:36:54;98262.50;;;-1.00;63.61
76052;BME280;64751;48.708;9.710;2023-02-28T07:39:22;98263.75;;;-0.96;63.64
76052;BME280;64751;48.708;9.710;2023-02-28T07:41:49;98277.91;;;-0.99;63.73
76052;BME280;64751;48.708;9.710;2023-02-28T07:44:17;98265.91;;;-1.00;63.88
76052;BME280;64751;48.708;9.710;2023-02-28T07:46:44;98265.16;;;-0.94;63.35
76052;BME280;64751;48.708;9.710;2023-02-28T07:49:13;98270.66;;;-0.82;64.25
76052;BME280;64751;48.708;9.710;2023-02-28T07:51:41;98274.69;;;-0.80;63.43
76052;BME280;64751;48.708;9.710;2023-02-28T07:54:08;98281.16;;;-0.90;63.44
76052;BME280;64751;48.708;9.710;2023-02-28T07:56:36;98274.13;;;-0.96;63.22
76052;BME280;64751;48.708;9.710;2023-02-28T07:59:03;98262.97;;;-0.97;63.94
76052;BME280;64751;48.708;9.710;2023-02-28T08:01:31;98271.09;;;-1.00;63.51
76052;BME280;64751;48.708;9.710;2023-02-28T08:03:58;98272.88;;;-1.00;63.56
76052;BME280;64751;48.708;9.710;2023-02-28T08:06:27;98269.06;;;-1.04;63.02
76052;BME280;64751;48.708;9.710;2023-02-28T08:08:55;98287.25;;;-0.98;62.84
76052;BME280;64751;48.708;9.710;2023-02-28T08:11:24;98298.91;;;-0.87;63.78
76052;BME280;64751;48.708;9.710;2023-02-28T08:13:51;98289.41;;;-0.80;63.17
76052;BME280;64751;48.708;9.710;2023-02-28T08:16:19;98285.47;;;-0.76;62.67
76052;BME280;64751;48.708;9.710;2023-02-28T08:18:49;98285.09;;;-0.73;63.26
76052;BME280;64751;48.708;9.710;2023-02-28T08:21:17;98294.56;;;-0.65;62.82
76052;BME280;64751;48.708;9.710;2023-02-28T08:23:47;98287.19;;;-0.62;62.16
76052;BME280;64751;48.708;9.710;2023-02-28T08:26:15;98285.09;;;-0.73;62.13
76052;BME280;64751;48.708;9.710;2023-02-28T08:28:43;98287.94;;;-0.68;61.99
76052;BME280;64751;48.708;9.710;2023-02-28T08:31:13;98279.41;;;-0.62;61.67
76052;BME280;64751;48.708;9.710;2023-02-28T08:33:41;98290.84;;;-0.56;61.80
76052;BME280;64751;48.708;9.710;2023-02-28T08:36:11;98283.84;;;-0.56;61.72
76052;BME280;64751;48.708;9.710;2023-02-28T08:38:39;98288.34;;;-0.43;61.50
76052;BME280;64751;48.708;9.710;2023-02-28T08:41:11;98292.22;;;-0.33;61.50
76052;BME280;64751;48.708;9.710;2023-02-28T08:43:39;98286.25;;;-0.27;61.06
76052;BME280;64751;48.708;9.710;2023-02-28T08:46:07;98275.09;;;-0.27;61.29
76052;BME280;64751;48.708;9.710;2023-02-28T08:48:35;98294.47;;;-0.23;61.22
76052;BME280;64751;48.708;9.710;2023-02-28T08:51:06;98295.06;;;-0.28;60.90
76052;BME280;64751;48.708;9.710;2023-02-28T08:53:35;98283.50;;;-0.25;60.54
76052;BME280;64751;48.708;9.710;2023-02-28T08:56:04;98276.56;;;-0.18;60.92
76052;BME280;64751;48.708;9.710;2023-02-28T08:58:35;98288.69;;;-0.25;61.00
76052;BME280;64751;48.708;9.710;2023-02-28T09:01:08;98288.53;;;-0.17;59.94
76052;BME280;64751;48.708;9.710;2023-02-28T09:03:36;98286.94;;;-0.18;62.43
76052;BME280;64751;48.708;9.710;2023-02-28T09:06:04;98295.72;;;-0.19;60.89
76052;BME280;64751;48.708;9.710;2023-02-28T09:08:32;98282.56;;;-0.11;59.97
76052;BME280;64751;48.708;9.710;2023-02-28T09:10:59;98289.97;;;-0.08;60.70
76052;BME280;64751;48.708;9.710;2023-02-28T09:13:28;98287.97;;;-0.13;59.92
76052;BME280;64751;48.708;9.710;2023-02-28T09:15:59;98297.56;;;-0.07;60.46
76052;BME280;64751;48.708;9.710;2023-02-28T09:18:27;98295.69;;;0.09;60.75
76052;BME280;64751;48.708;9.710;2023-02-28T09:20:54;98291.94;;;0.18;59.62
76052;BME280;64751;48.708;9.710;2023-02-28T09:23:23;98298.19;;;0.30;59.56
76052;BME280;64751;48.708;9.710;2023-02-28T09:25:52;98291.47;;;0.42;59.43
76052;BME280;64751;48.708;9.710;2023-02-28T09:28:21;98303.91;;;0.53;59.73
76052;BME280;64751;48.708;9.710;2023-02-28T09:30:51;98294.72;;;0.57;58.56
76052;BME280;64751;48.708;9.710;2023-02-28T09:33:21;98295.94;;;0.61;59.02
76052;BME280;64751;48.708;9.710;2023-02-28T09:35:49;98307.47;;;0.52;57.41
76052;BME280;64751;48.708;9.710;2023-02-28T09:38:17;98311.31;;;0.56;58.76
76052;BME280;64751;48.708;9.710;2023-02-28T09:40:49;98294.50;;;0.52;58.34
76052;BME280;64751;48.708;9.710;2023-02-28T09:43:20;98295.53;;;0.64;58.59
76052;BME280;64751;48.708;9.710;2023-02-28T09:45:52;98303.72;;;0.61;58.36
76052;BME280;64751;48.708;9.710;2023-02-28T09:48:32;98304.53;;;0.61;58.25
76052;BME280;64751;48.708;9.710;2023-02-28T09:51:04;98312.53;;;0.60;58.33
76052;BME280;64751;48.708;9.710;2023-02-28T09:53:35;98286.50;;;0.47;58.76
76052;BME280;64751;48.708;9.710;2023-02-28T09:56:06;98301.94;;;0.68;58.27
76052;BME280;64751;48.708;9.710;2023-02-28T09:58:39;98310.34;;;0.70;57.98
76052;BME280;64751;48.708;9.710;2023-02-28T10:01:12;98311.75;;;0.66;58.54
76052;BME280;64751;48.708;9.710;2023-02-28T10:03:54;98307.16;;;0.68;58.20
76052;BME280;64751;48.708;9.710;2023-02-28T10:06:28;98307.97;;;0.68;58.05
76052;BME280;64751;48.708;9.710;2023-02-28T10:09:02;98317.41;;;0.76;58.46
76052;BME280;64751;48.708;9.710;2023-02-28T10:11:33;98319.59;;;0.86;58.38
76052;BME280;64751;48.708;9.710;2023-02-28T10:14:05;98321.63;;;0.90;57.76
76052;BME280;64751;48.708;9.710;2023-02-28T10:16:40;98317.63;;;0.94;57.16
76052;BME280;64751;48.708;9.710;2023-02-28T10:19:16;98324.47;;;1.02;58.17
76052;BME280;64751;48.708;9.710;2023-02-28T10:21:49;98319.50;;;1.13;57.70
76052;BME280;64751;48.708;9.710;2023-02-28T10:24:28;98322.31;;;1.31;57.94
76052;BME280;64751;48.708;9.710;2023-02-28T10:27:00;98309.91;;;1.27;57.17
76052;BME280;64751;48.708;9.710;2023-02-28T10:29:31;98316.16;;;1.52;56.70
76052;BME280;64751;48.708;9.710;2023-02-28T10:32:02;98321.97;;;1.61;57.05
76052;BME280;64751;48.708;9.710;2023-02-28T10:34:32;98326.56;;;1.72;56.98
76052;BME280;64751;48.708;9.710;2023-02-28T10:36:59;98320.34;;;1.73;57.76
76052;BME280;64751;48.708;9.710;2023-02-28T10:39:35;98324.16;;;1.83;56.48
76052;BME280;64751;48.708;9.710;2023-02-28T10:42:03;98316.72;;;1.87;56.59
76052;BME280;64751;48.708;9.710;2023-02-28T10:44:31;98311.53;;;1.87;55.69
76052;BME280;64751;48.708;9.710;2023-02-28T10:46:59;98317.53;;;1.94;56.14
76052;BME280;64751;48.708;9.710;2023-02-28T10:49:27;98308.50;;;2.09;55.87
76052;BME280;64751;48.708;9.710;2023-02-28T10:51:59;98313.88;;;2.28;57.65
76052;BME280;64751;48.708;9.710;2023-02-28T10:54:30;98314.44;;;2.36;55.23
76052;BME280;64751;48.708;9.710;2023-02-28T10:57:15;98319.25;;;2.39;57.55
76052;BME280;64751;48.708;9.710;2023-02-28T10:59:43;98308.47;;;2.22;55.14
76052;BME280;64751;48.708;9.710;2023-02-28T11:02:31;98295.06;;;2.19;55.25
76052;BME280;64751;48.708;9.710;2023-02-28T11:04:59;98306.66;;;2.23;54.93
76052;BME280;64751;48.708;9.710;2023-02-28T11:07:28;98323.41;;;2.47;55.74
76052;BME280;64751;48.708;9.710;2023-02-28T11:09:57;98315.00;;;2.51;55.91
76052;BME280;64751;48.708;9.710;2023-02-28T11:12:27;98314.44;;;2.36;57.17
76052;BME280;64751;48.708;9.710;2023-02-28T11:14:58;98321.06;;;2.32;56.87
76052;BME280;64751;48.708;9.710;2023-02-28T11:17:28;98317.47;;;2.20;56.71
76052;BME280;64751;48.708;9.710;2023-02-28T11:19:59;98312.72;;;2.10;56.00
76052;BME280;64751;48.708;9.710;2023-02-28T11:22:32;98301.06;;;2.06;55.80
76052;BME280;64751;48.708;9.710;2023-02-28T11:25:07;98305.69;;;2.04;56.01
76052;BME280;64751;48.708;9.710;2023-02-28T11:27:54;98302.09;;;1.99;57.41
76052;BME280;64751;48.708;9.710;2023-02-28T11:30:28;98291.09;;;1.97;55.97
76052;BME280;64751;48.708;9.710;2023-02-28T11:32:56;98296.69;;;2.00;56.42
76052;BME280;64751;48.708;9.710;2023-02-28T11:35:26;98286.47;;;1.99;56.17
76052;BME280;64751;48.708;9.710;2023-02-28T11:37:57;98282.47;;;1.96;57.24
76052;BME280;64751;48.708;9.710;2023-02-28T11:40:31;98277.88;;;1.92;57.02
76052;BME280;64751;48.708;9.710;2023-02-28T11:43:08;98282.84;;;2.00;57.96
76052;BME280;64751;48.708;9.710;2023-02-28T11:45:48;98278.25;;;2.02;56.88
76052;BME280;64751;48.708;9.710;2023-02-28T11:48:21;98284.47;;;2.01;57.66
76052;BME280;64751;48.708;9.710;2023-02-28T11:50:58;98283.06;;;2.05;58.14
76052;BME280;64751;48.708;9.710;2023-02-28T11:56:36;98278.63;;;2.18;58.85
76052;BME280;64751;48.708;9.710;2023-02-28T11:59:20;98271.59;;;2.19;57.98
76052;BME280;64751;48.708;9.710;2023-02-28T12:02:17;98267.19;;;2.26;57.88
76052;BME280;64751;48.708;9.710;2023-02-28T12:04:53;98271.97;;;2.29;57.38
76052;BME280;64751;48.708;9.710;2023-02-28T12:07:33;98269.16;;;2.37;57.00
76052;BME280;64751;48.708;9.710;2023-02-28T12:10:11;98272.13;;;2.41;56.68
76052;BME280;64751;48.708;9.710;2023-02-28T12:12:54;98271.91;;;2.49;57.11
76052;BME280;64751;48.708;9.710;2023-02-28T12:15:35;98267.06;;;2.52;56.37
76052;BME280;64751;48.708;9.710;2023-02-28T12:18:16;98257.25;;;2.54;56.07
76052;BME280;64751;48.708;9.710;2023-02-28T12:20:54;98253.06;;;2.53;57.23
76052;BME280;64751;48.708;9.710;2023-02-28T12:23:44;98256.59;;;2.65;55.72
76052;BME280;64751;48.708;9.710;2023-02-28T12:26:19;98247.34;;;2.69;55.89
76052;BME280;64751;48.708;9.710;2023-02-28T12:28:54;98229.13;;;2.63;55.76
76052;BME280;64751;48.708;9.710;2023-02-28T12:31:28;98247.25;;;2.82;56.63
76052;BME280;64751;48.708;9.710;2023-02-28T12:33:59;98251.06;;;2.86;55.94
76052;BME280;64751;48.708;9.710;2023-02-28T12:36:28;98250.44;;;2.91;55.63
76052;BME280;64751;48.708;9.710;2023-02-28T12:39:00;98247.03;;;2.90;54.60
76052;BME280;64751;48.708;9.710;2023-02-28T12:41:36;98239.38;;;2.96;52.93
76052;BME280;64751;48.708;9.710;2023-02-28T12:44:11;98220.38;;;2.88;53.95
76052;BME280;64751;48.708;9.710;2023-02-28T12:46:42;98233.31;;;3.02;52.88
76052;BME280;64751;48.708;9.710;2023-02-28T12:49:14;98241.69;;;3.10;53.13
76052;BME280;64751;48.708;9.710;2023-02-28T12:51:44;98239.03;;;3.17;53.72
76052;BME280;64751;48.708;9.710;2023-02-28T12:54:19;98232.38;;;3.21;52.64
76052;BME280;64751;48.708;9.710;2023-02-28T12:56:54;98234.72;;;3.29;54.05
76052;BME280;64751;48.708;9.710;2023-02-28T12:59:31;98238.44;;;3.39;54.89
76052;BME280;64751;48.708;9.710;2023-02-28T13:02:09;98241.88;;;3.40;53.32
76052;BME280;64751;48.708;9.710;2023-02-28T13:05:06;98225.78;;;3.43;54.38
76052;BME280;64751;48.708;9.710;2023-02-28T13:10:42;98224.13;;;3.48;52.33
76052;BME280;64751;48.708;9.710;2023-02-28T13:13:14;98228.13;;;3.51;53.02
76052;BME280;64751;48.708;9.710;2023-02-28T13:15:59;98216.63;;;3.58;53.62
76052;BME280;64751;48.708;9.710;2023-02-28T13:18:31;98232.13;;;3.53;52.00
76052;BME280;64751;48.708;9.710;2023-02-28T13:21:00;98219.06;;;3.53;52.84
76052;BME280;64751;48.708;9.710;2023-02-28T13:23:57;98221.69;;;3.53;52.56
76052;BME280;64751;48.708;9.710;2023-02-28T13:29:41;98215.06;;;3.51;52.00
76052;BME280;64751;48.708;9.710;2023-02-28T13:32:38;98216.06;;;3.50;52.96
76052;BME280;64751;48.708;9.710;2023-02-28T13:35:34;98219.47;;;3.50;52.44
76052;BME280;64751;48.708;9.710;2023-02-28T13:38:21;98211.44;;;3.52;52.89
76052;BME280;64751;48.708;9.710;2023-02-28T13:40:49;98224.66;;;3.57;53.13